Merrimack Pharmaceuticals In (MACK) Latest Bloomsberg Price


Mffais Ranking #212 Overall / #3 Industry
Industry: Biotech

Number of Companies: 95 (Ranking #1695 Overall/#36 Industry)
Inflow: $ 55,844 (K) (Ranking #1250 Overall/#26 Industry)
Outflow: $ -10,910 (K)
Mffais Flow: $ 44,933 (K) (Ranking #212 Overall/#3 Industry)


Receive a FREE weekly executive review of stocks moving into the top 10, taking the top industy spot or moving up within their industry. Sent directly to your Inbox every Saturday. Sign up today and get last week's review immediately sent to you.

We value and respect your privacy. Please read our Terms and Conditions which states our firm commitment to your privacy. Your email address will not be shared with a third party, nor will it be sold or used for purposes other than subscription for the weekly review.

Owner CPOR Shares Action Qty Chg Invested (K) Total Current Value (K)
Consonance Capital Management Lp 2016-09-30 5,950,225 New Holding 5,950,225 $ 32,785 $ 32,785
Great Point Partners Llc 2016-09-30 2,442,159 New Holding 2,442,159 $ 13,456 $ 13,456
Indus Capital Partners Llc 2016-09-30 500,000 New Holding 500,000 $ 2,755 $ 2,755
Portolan Capital Management Llc 2016-09-30 412,189 New Holding 412,189 $ 2,271 $ 2,271
Marshall Wace Llp 2016-09-30 277,641 New Holding 277,641 $ 1,529 $ 1,529
Teachers Advisors Inc 2016-09-30 2,762,416 Added More 195,953 $ 1,079 $ 15,220
Simplex Trading Llc 2016-09-30 74,116 Added More 67,280 $ 370 $ 408
Group One Trading L P 2016-09-30 62,819 Added More 45,387 $ 250 $ 346
Stoneridge Investment Partners Llc 2016-09-30 221,838 Added More 41,304 $ 227 $ 1,222
New York State Common Retirement Fund 2016-09-30 260,057 Added More 40,804 $ 224 $ 1,432
Blair William Co Il 2016-09-30 309,100 Added More 22,250 $ 122 $ 1,703
First Republic Investment Management Inc 2016-09-30 140,000 Added More 20,000 $ 110 $ 771
Sg Americas Securities Llc 2016-09-30 19,938 New Holding 19,938 $ 109 $ 109
Creative Planning 2016-09-30 25,408 Added More 16,850 $ 92 $ 139
Virtus Etf Advisers Llc 2016-09-30 100,090 Added More 12,613 $ 69 $ 551
Boothbay Fund Management Llc 2016-09-30 10,000 New Holding 10,000 $ 55 $ 55
Private Advisor Group Llc 2016-09-30 91,802 Added More 7,150 $ 39 $ 505
Candriam Luxembourg S C A 2016-09-30 224,000 Added More 7,000 $ 38 $ 1,234
Blackrock Inc 2016-09-30 34,837 Added More 6,963 $ 38 $ 191
Brave Asset Management Inc 2016-09-30 15,000 Added More 5,000 $ 27 $ 82
Palisade Capital Management Llc Nj 2016-09-30 19,000 Added More 4,930 $ 27 $ 104
Weiss Multi-Strategy Advisers Llc 2016-09-30 37,000 Added More 4,195 $ 23 $ 203
First New York Securities Llc Ny 2016-09-30 3,750 New Holding 3,750 $ 20 $ 20
Commonwealth Equity Services Inc 2016-09-30 36,931 Added More 3,500 $ 19 $ 203
Family Management Corp 2016-09-30 17,000 Added More 3,000 $ 16 $ 93
Blackrock Japan Co Ltd 2016-09-30 3,408 Added More 2,946 $ 16 $ 18
Parametric Portfolio Associates Llc 2016-09-30 27,263 Added More 2,775 $ 15 $ 150
California State Teachers Retirement System 2016-09-30 258,314 Added More 2,400 $ 13 $ 1,423
Nisa Investment Advisors Llc 2016-09-30 3,800 Added More 2,100 $ 11 $ 20
Her Majesty The Queen In Right Of The Province Of Alberta As 2016-09-30 234,480 Added More 2,050 $ 11 $ 1,291
Raymond James Associates 2016-09-30 46,764 Added More 2,000 $ 11 $ 257
Axa 2016-09-30 948,827 Added More 548 $ 3 $ 5,228
American International Group Inc 2016-09-30 70,364 Added More 107 $ 0 $ 387
Next Financial Group Inc 2016-09-30 23 New Holding 23 $ 0 $ 0
Zurcher Kantonalbank Zurich Cantonalbank 2016-09-30 2,712 No Change 0 $ 0 $ 14
Manchester Capital Management Llc 2016-09-30 30,000 No Change 0 $ 0 $ 165
Alesco Advisors Llc 2016-09-30 17,532 No Change 0 $ 0 $ 96
Reilly Financial Advisors Llc 2016-09-30 200 No Change 0 $ 0 $ 1
Tekla Capital Management Llc 2016-09-30 286,000 No Change 0 $ 0 $ 1,575
Financial Architects Inc 2016-09-30 500 No Change 0 $ 0 $ 2
Plante Moran Financial Advisors Llc 2016-09-30 2,000 No Change 0 $ 0 $ 11
Sandy Spring Bank 2016-09-30 1,000 No Change 0 $ 0 $ 5
Qs Investors Llc 2016-09-30 277,355 No Change 0 $ 0 $ 1,528
Asset Management Group Inc 2016-09-30 19,453 No Change 0 $ 0 $ 107
Horizon Kinetics Llc 2016-09-30 25,000 No Change 0 $ 0 $ 137
Cambridge Trust Co 2016-09-30 143,003 No Change 0 $ 0 $ 787
M R Capital Management Inc 2016-09-30 500 No Change 0 $ 0 $ 2
Garrison Bradford Associates Inc 2016-09-30 82,700 No Change 0 $ 0 $ 455
Swiss National Bank 2016-09-30 185,600 No Change 0 $ 0 $ 1,022
New England Private Wealth Advisors Llc 2016-09-30 16,721 No Change 0 $ 0 $ 92
Birchview Capital Lp 2016-09-30 44,000 No Change 0 $ 0 $ 242
Krilogy Financial Llc 2016-09-30 300 No Change 0 $ 0 $ 1
Sei Investments Co 2016-09-30 47,020 No Change 0 $ 0 $ 259
Us Bancorp De 2016-09-30 200 No Change 0 $ 0 $ 1
Altfest L J Co Inc 2016-09-30 39,490 Sold Some -1 $ -0 $ 217
Quadrant Capital Group Llc 2016-09-30 0 Sold All -841 $ -4 $ 0
Rhumbline Advisers 2016-09-30 132,760 Sold Some -1,000 $ -5 $ 731
Msi Financial Services Inc 2016-09-30 1,060 Sold Some -1,000 $ -5 $ 5
Perceptive Advisors Llc 2016-09-30 48,910 Sold Some -1,090 $ -6 $ 269
Clear Harbor Asset Management Llc 2016-09-30 17,000 Sold Some -1,300 $ -7 $ 93
Blackrock Investment Management Llc 2016-09-30 470,238 Sold Some -1,472 $ -8 $ 2,591
Legal General Group Plc 2016-09-30 25,270 Sold Some -1,496 $ -8 $ 139
Teacher Retirement System Of Texas 2016-09-30 12,995 Sold Some -2,325 $ -12 $ 71
Cannell Peter B Co Inc 2016-09-30 1,611,678 Sold Some -3,000 $ -16 $ 8,880
Nationwide Fund Advisors 2016-09-30 116,513 Sold Some -4,000 $ -22 $ 641
Pnc Financial Services Group Inc 2016-09-30 31,920 Sold Some -4,602 $ -25 $ 175
Ladenburg Thalmann Financial Services Inc 2016-09-30 0 Sold All -5,000 $ -27 $ 0
Highpoint Advisor Group Llc 2016-09-30 0 Sold All -8,484 $ -46 $ 0
Cutler Group Lp 2016-09-30 13,900 Sold Some -9,300 $ -51 $ 76
Dynamic Technology Lab Private Ltd 2016-09-30 0 Sold All -10,564 $ -58 $ 0
Css Llc Il 2016-09-30 0 Sold All -11,000 $ -60 $ 0
Tudor Investment Corp Et Al 2016-09-30 0 Sold All -11,400 $ -62 $ 0
Northern Trust Corp 2016-09-30 1,373,741 Sold Some -13,043 $ -71 $ 7,569
Stevens Capital Management Lp 2016-09-30 0 Sold All -13,762 $ -75 $ 0
Pacad Investment Ltd 2016-09-30 0 Sold All -13,900 $ -76 $ 0
Highbridge Capital Management Llc 2016-09-30 0 Sold All -15,837 $ -87 $ 0
Proshare Advisors Llc 2016-09-30 93,485 Sold Some -16,521 $ -91 $ 515
Jane Street Group Llc 2016-09-30 0 Sold All -17,755 $ -97 $ 0
Commerzbank Aktiengesellschaft Fi 2016-09-30 0 Sold All -22,766 $ -125 $ 0
Cubist Systematic Strategies Llc 2016-09-30 0 Sold All -25,128 $ -138 $ 0
Gam Holding Ag 2016-09-30 0 Sold All -39,000 $ -214 $ 0
Jacobs Levy Equity Management Inc 2016-09-30 0 Sold All -42,400 $ -233 $ 0
Chicago Equity Partners Llc 2016-09-30 0 Sold All -48,180 $ -265 $ 0
Trexquant Investment Lp 2016-09-30 0 Sold All -53,973 $ -297 $ 0
Capstone Investment Advisors Llc 2016-09-30 0 Sold All -56,103 $ -309 $ 0
Commerce Bank 2016-09-30 43,000 Sold Some -57,000 $ -314 $ 236
Boston Advisors Llc 2016-09-30 0 Sold All -57,660 $ -317 $ 0
Mariner Investment Group Llc 2016-09-30 0 Sold All -63,090 $ -347 $ 0
Dekabank Deutsche Girozentrale 2016-09-30 0 Sold All -70,000 $ -385 $ 0
Kcg Holdings Inc 2016-09-30 0 Sold All -71,925 $ -396 $ 0
Connor Clark Lunn Investment Management Ltd 2016-09-30 0 Sold All -109,300 $ -602 $ 0
Putnam Investments Llc 2016-09-30 2,654,373 Sold Some -119,948 $ -660 $ 14,625
Westfield Capital Management Co Lp 2016-09-30 8,894,008 Sold Some -180,549 $ -994 $ 49,005
Lagoda Investment Management L P 2016-09-30 1,870,777 Sold Some -373,303 $ -2,056 $ 10,307
Guggenheim Capital Llc 2016-09-30 0 Sold All -421,079 $ -2,320 $ 0